| time (UTC) | temp C | wind direction | speed KPH | gust KPH | rain 1hr cm | rain 24hr cm | rain mn cm | humidity % | barometer mb |
| 20260507040021 | 16 | 315 | 3.2 | 8.0 | 0.00 | 0.00 | 0.00 | 81 | 1016.1 |
| 20260507033020 | 17 | 315 | 4.8 | 11.3 | 0.00 | 0.00 | 0.00 | 77 | 1015.9 |
| 20260507030021 | 18 | 315 | 3.2 | 11.3 | 0.00 | 0.00 | 0.00 | 72 | 1015.5 |
| 20260507023201 | 21 | 315 | 3.2 | 9.7 | 0.00 | 0.00 | 0.00 | 66 | 1015.2 |
| 20260507020020 | 22 | 315 | 3.2 | 12.9 | 0.00 | 0.00 | 0.00 | 64 | 1015.2 |
| 20260507013016 | 24 | 292 | 3.2 | 11.3 | 0.00 | 0.00 | 0.00 | 60 | 1015.2 |
| 20260507010020 | 24 | 247 | 4.8 | 11.3 | 0.00 | 0.00 | 0.00 | 60 | 1015.1 |
| 20260507003041 | 25 | 270 | 3.2 | 12.9 | 0.00 | 0.00 | 0.00 | 59 | 1014.9 |
| 20260507000020 | 24 | 270 | 3.2 | 11.3 | 0.00 | 0.00 | 0.00 | 59 | 1014.9 |
| 20260506233020 | 25 | 180 | 3.2 | 12.9 | 0.00 | 0.00 | 0.00 | 57 | 1015.1 |
| 20260506230021 | 24 | 180 | 3.2 | 8.0 | 0.00 | 0.00 | 0.00 | 60 | 1015.3 |
| 20260506223040 | 23 | 180 | 3.2 | 11.3 | 0.00 | 0.00 | 0.00 | 60 | 1015.7 |
| 20260506220016 | 23 | 180 | 4.8 | 9.7 | 0.00 | 0.00 | 0.00 | 61 | 1016.1 |
| 20260506213020 | 22 | 180 | 4.8 | 9.7 | 0.00 | 0.00 | 0.00 | 63 | 1016.4 |
| 20260506210041 | 23 | 180 | 3.2 | 8.0 | 0.00 | 0.00 | 0.00 | 61 | 1016.6 |
| 20260506203020 | 22 | 180 | 3.2 | 8.0 | 0.00 | 0.00 | 0.00 | 63 | 1016.9 |
| 20260506200036 | 23 | 202 | 3.2 | 11.3 | 0.00 | 0.00 | 0.00 | 60 | 1017.1 |
| 20260506193020 | 23 | 180 | 1.6 | 8.0 | 0.00 | 0.00 | 0.00 | 61 | 1017.4 |
| 20260506190020 | 22 | 202 | 1.6 | 8.0 | 0.00 | 0.00 | 0.00 | 63 | 1017.6 |
| 20260506183022 | 21 | 202 | 1.6 | 6.4 | 0.00 | 0.00 | 0.00 | 65 | 1017.7 |
| 20260506173023 | 17 | 292 | 1.6 | 8.0 | 0.00 | 0.00 | 0.00 | 76 | 1017.9 |
| 20260506170022 | 16 | 292 | 1.6 | 6.4 | 0.00 | 0.00 | 0.00 | 78 | 1017.9 |
| 20260506163022 | 15 | 292 | 1.6 | 6.4 | 0.00 | 0.00 | 0.00 | 82 | 1018.0 |
| 20260506160018 | 14 | 292 | 1.6 | 6.4 | 0.00 | 0.00 | 0.00 | 84 | 1018.1 |
| 20260506153022 | 13 | 0.0 | 4.8 | 0.00 | 0.00 | 0.00 | 90 | 1018.1 | |
| 20260506150021 | 12 | 0.0 | 6.4 | 0.00 | 0.00 | 0.00 | 93 | 1018.2 | |
| 20260506143022 | 11 | 0.0 | 4.8 | 0.00 | 0.00 | 0.00 | 94 | 1018.3 | |
| 20260506140023 | 11 | 0.0 | 1.6 | 0.00 | 0.00 | 0.00 | 94 | 1018.0 | |
| 20260506133022 | 11 | 0.0 | 4.8 | 0.00 | 0.00 | 0.00 | 93 | 1017.6 | |
| 20260506130021 | 11 | 0.0 | 3.2 | 0.00 | 0.00 | 0.00 | 93 | 1017.5 | |
| 20260506123017 | 11 | 0.0 | 0.0 | 0.00 | 0.00 | 0.00 | 93 | 1017.2 | |
| 20260506120021 | 11 | 0.0 | 4.8 | 0.00 | 0.00 | 0.00 | 93 | 1017.1 | |
| 20260506113042 | 11 | 0.0 | 3.2 | 0.00 | 0.00 | 0.00 | 93 | 1017.0 | |
| 20260506110021 | 11 | 0.0 | 0.0 | 0.00 | 0.00 | 0.00 | 93 | 1016.9 | |
| 20260506103022 | 11 | 0.0 | 0.0 | 0.00 | 0.00 | 0.00 | 93 | 1016.8 | |
| 20260506100021 | 11 | 0.0 | 0.0 | 0.00 | 0.00 | 0.00 | 93 | 1016.9 | |
| 20260506093022 | 11 | 0.0 | 0.0 | 0.00 | 0.00 | 0.00 | 93 | 1016.9 | |
| 20260506090017 | 11 | 0.0 | 0.0 | 0.00 | 0.00 | 0.00 | 91 | 1016.7 | |
| 20260506083021 | 11 | 0.0 | 0.0 | 0.00 | 0.00 | 0.00 | 90 | 1016.7 | |
| 20260506073021 | 12 | 0.0 | 0.0 | 0.00 | 0.00 | 0.00 | 86 | 1016.4 | |
| 20260506043020 | 13 | 0.0 | 1.6 | 0.00 | 0.00 | 0.00 | 83 | 1015.3 |